createdAt,value
2022-11-02T00:01:22.206Z,10.10
2022-11-02T00:03:51.689Z,10.10
2022-11-02T00:06:19.895Z,10.10
2022-11-02T00:08:48.245Z,10.10
2022-11-02T00:11:17.322Z,10.10
2022-11-02T00:13:45.577Z,10.10
2022-11-02T00:16:17.008Z,10.20
2022-11-02T00:18:47.756Z,10.20
2022-11-02T00:21:17.850Z,10.20
2022-11-02T00:23:47.728Z,10.20
2022-11-02T00:26:16.833Z,10.20
2022-11-02T00:28:45.895Z,10.20
2022-11-02T00:31:16.187Z,10.20
2022-11-02T00:33:44.786Z,10.20
2022-11-02T00:36:13.176Z,10.20
2022-11-02T00:38:41.502Z,10.20
2022-11-02T00:41:09.919Z,10.20
2022-11-02T00:43:38.760Z,10.20
2022-11-02T00:46:07.198Z,10.30
2022-11-02T00:48:37.155Z,10.30
2022-11-02T00:51:05.653Z,10.30
2022-11-02T00:53:34.859Z,10.30
2022-11-02T00:56:03.121Z,10.30
2022-11-02T00:58:31.470Z,10.30
2022-11-02T01:01:05.019Z,10.40
2022-11-02T01:03:34.097Z,10.30
2022-11-02T01:06:11.039Z,10.20
2022-11-02T01:08:40.675Z,10.20
2022-11-02T01:11:18.436Z,10.20
2022-11-02T01:13:47.431Z,10.20
2022-11-02T01:16:16.534Z,10.20
2022-11-02T01:18:45.729Z,10.20
2022-11-02T01:21:15.280Z,10.30
2022-11-02T01:23:44.980Z,10.20
2022-11-02T01:26:13.731Z,10.30
2022-11-02T01:28:42.781Z,10.30
2022-11-02T01:31:12.474Z,10.30
2022-11-02T01:33:45.951Z,10.30
2022-11-02T01:36:17.339Z,10.30
2022-11-02T01:38:46.107Z,10.30
2022-11-02T01:41:14.317Z,10.40
2022-11-02T01:43:43.857Z,10.30
2022-11-02T01:46:18.942Z,10.30
2022-11-02T01:48:51.325Z,10.40
2022-11-02T01:51:26.865Z,10.30
2022-11-02T01:53:58.393Z,10.30
2022-11-02T01:56:30.995Z,10.30
2022-11-02T01:59:02.263Z,10.40
2022-11-02T02:01:31.198Z,10.40
2022-11-02T02:04:00.442Z,10.30
2022-11-02T02:06:30.724Z,10.30
2022-11-02T02:09:03.233Z,10.40
2022-11-02T02:11:33.848Z,10.30
2022-11-02T02:14:05.780Z,10.30
2022-11-02T02:16:52.854Z,10.30
2022-11-02T02:19:36.948Z,10.30
2022-11-02T02:22:24.156Z,10.20
2022-11-02T02:25:06.476Z,10.20
2022-11-02T02:27:55.871Z,10.10
2022-11-02T02:30:24.472Z,10.20
2022-11-02T02:32:58.118Z,10.20
2022-11-02T02:35:31.338Z,10.30
2022-11-02T02:38:03.162Z,10.30
2022-11-02T02:40:36.209Z,10.30
2022-11-02T02:43:10.347Z,10.30
2022-11-02T02:45:41.442Z,10.30
2022-11-02T02:48:14.780Z,10.20
2022-11-02T02:50:47.665Z,10.30
2022-11-02T02:53:17.714Z,10.30
2022-11-02T02:55:50.844Z,10.20
2022-11-02T02:58:24.052Z,10.30
2022-11-02T03:00:53.991Z,10.30
2022-11-02T03:03:25.701Z,10.30
2022-11-02T03:06:03.550Z,10.30
2022-11-02T03:08:34.021Z,10.30
2022-11-02T03:11:12.980Z,10.30
2022-11-02T03:13:53.953Z,10.30
2022-11-02T03:16:34.329Z,10.30
2022-11-02T03:19:11.179Z,10.30
2022-11-02T03:21:42.390Z,10.30
2022-11-02T03:24:15.516Z,10.20
2022-11-02T03:26:50.055Z,10.30
2022-11-02T03:29:25.377Z,10.20
2022-11-02T03:31:59.424Z,10.20
2022-11-02T03:34:39.671Z,10.20
2022-11-02T03:37:15.379Z,10.30
2022-11-02T03:39:47.697Z,10.20
2022-11-02T03:42:21.613Z,10.20
2022-11-02T03:44:56.700Z,10.20
2022-11-02T03:47:26.292Z,10.20
2022-11-02T03:49:57.139Z,10.20
2022-11-02T03:52:31.884Z,10.10
2022-11-02T03:55:06.700Z,10.10
2022-11-02T03:57:44.021Z,10.10
2022-11-02T04:00:16.893Z,10.10
2022-11-02T04:02:50.065Z,10.00
2022-11-02T04:05:19.280Z,10.00
2022-11-02T04:08:08.830Z,10.10
2022-11-02T04:10:57.084Z,10.00
2022-11-02T04:13:42.904Z,10.00
2022-11-02T04:16:12.578Z,10.00
2022-11-02T04:18:59.259Z,10.10
2022-11-02T04:21:27.795Z,10.00
2022-11-02T04:24:13.585Z,10.10
2022-11-02T04:26:41.863Z,10.00
2022-11-02T04:29:13.379Z,10.00
2022-11-02T04:31:43.023Z,10.10
2022-11-02T04:34:10.682Z,10.10
2022-11-02T04:36:39.479Z,10.00
2022-11-02T04:39:06.665Z,10.00
2022-11-02T04:41:44.061Z,10.00
2022-11-02T04:44:17.101Z,10.10
2022-11-02T04:46:46.847Z,10.10
2022-11-02T04:49:15.618Z,10.00
2022-11-02T04:51:47.170Z,10.00
2022-11-02T04:54:19.172Z,9.90
2022-11-02T04:56:47.898Z,9.90
2022-11-02T04:59:16.157Z,9.80
2022-11-02T05:01:44.445Z,9.90
2022-11-02T05:04:14.581Z,9.90
2022-11-02T05:06:42.787Z,9.90
2022-11-02T05:09:11.541Z,9.90
2022-11-02T05:11:39.721Z,9.80
2022-11-02T05:14:07.934Z,9.80
2022-11-02T05:16:36.167Z,9.70
2022-11-02T05:19:07.058Z,9.70
2022-11-02T05:21:40.423Z,9.70
2022-11-02T05:24:09.781Z,9.70
2022-11-02T05:26:37.984Z,9.60
2022-11-02T05:29:06.600Z,9.60
2022-11-02T05:31:34.810Z,9.50
2022-11-02T05:34:04.208Z,9.50
2022-11-02T05:36:32.427Z,9.50
2022-11-02T05:39:02.111Z,9.50
2022-11-02T05:41:30.453Z,9.40
2022-11-02T05:43:58.769Z,9.40
2022-11-02T05:46:29.196Z,9.40
2022-11-02T05:48:57.884Z,9.40
2022-11-02T05:51:26.643Z,9.40
2022-11-02T05:53:55.804Z,9.30
2022-11-02T05:56:25.548Z,9.30
2022-11-02T05:58:55.476Z,9.30
2022-11-02T06:01:24.097Z,9.40
2022-11-02T06:03:53.929Z,9.40
2022-11-02T06:06:23.301Z,9.30
2022-11-02T06:08:51.777Z,9.40
2022-11-02T06:11:20.332Z,9.30
2022-11-02T06:13:51.610Z,9.40
2022-11-02T06:16:23.064Z,9.40
2022-11-02T06:18:52.588Z,9.40
2022-11-02T06:21:20.944Z,9.40
2022-11-02T06:23:49.327Z,9.40
2022-11-02T06:26:18.714Z,9.40
2022-11-02T06:28:46.998Z,9.40
2022-11-02T06:31:17.372Z,9.50
2022-11-02T06:33:46.395Z,9.50
2022-11-02T06:36:14.974Z,9.60
2022-11-02T06:38:44.126Z,9.60
2022-11-02T06:41:13.450Z,9.60
2022-11-02T06:43:41.734Z,9.60
2022-11-02T06:46:10.159Z,9.70
2022-11-02T06:48:40.164Z,9.70
2022-11-02T06:51:08.836Z,9.70
2022-11-02T06:53:37.440Z,9.70
2022-11-02T06:56:05.992Z,9.80
2022-11-02T06:58:34.393Z,9.80
2022-11-02T07:01:04.987Z,9.80
2022-11-02T07:03:33.354Z,9.80
2022-11-02T07:06:03.686Z,9.90
2022-11-02T07:08:33.466Z,9.80
2022-11-02T07:11:01.784Z,9.80
2022-11-02T07:13:30.132Z,9.80
2022-11-02T07:15:58.331Z,9.80
2022-11-02T07:18:29.282Z,9.80
2022-11-02T07:21:00.189Z,9.70
2022-11-02T07:23:29.951Z,9.80
2022-11-02T07:25:58.188Z,9.80
2022-11-02T07:28:26.387Z,9.80
2022-11-02T07:30:56.379Z,9.80
2022-11-02T07:33:24.706Z,9.90
2022-11-02T07:35:53.272Z,9.80
2022-11-02T07:38:22.047Z,9.90
2022-11-02T07:40:52.087Z,10.00
2022-11-02T07:43:20.420Z,10.10
2022-11-02T07:45:48.674Z,10.10
2022-11-02T07:48:16.947Z,10.10
2022-11-02T07:50:45.350Z,10.00
2022-11-02T07:53:13.661Z,10.00
2022-11-02T07:55:42.778Z,10.00
2022-11-02T07:58:14.725Z,10.10
2022-11-02T08:00:43.567Z,10.20
2022-11-02T08:03:13.004Z,10.20
2022-11-02T08:05:43.796Z,10.30
2022-11-02T08:08:14.122Z,10.30
2022-11-02T08:10:44.504Z,10.30
2022-11-02T08:13:17.044Z,10.30
2022-11-02T08:15:46.097Z,10.10
2022-11-02T08:19:00.611Z,10.20
2022-11-02T08:22:15.269Z,10.20
2022-11-02T08:25:35.166Z,10.40
2022-11-02T08:35:34.605Z,10.80
2022-11-02T08:38:03.622Z,10.80
2022-11-02T08:40:32.646Z,10.90
2022-11-02T08:43:02.892Z,11.00
2022-11-02T08:46:00.576Z,11.00
2022-11-02T08:48:22.009Z,11.00
2022-11-02T08:50:50.502Z,11.10
2022-11-02T08:53:19.089Z,11.20
2022-11-02T08:55:47.917Z,11.20
2022-11-02T08:58:18.794Z,11.30
2022-11-02T09:00:48.879Z,11.40
2022-11-02T09:03:25.092Z,11.40
2022-11-02T09:05:59.905Z,11.40
2022-11-02T09:08:29.171Z,11.40
2022-11-02T09:11:01.420Z,11.50
2022-11-02T09:13:30.802Z,11.40
2022-11-02T09:16:02.687Z,11.50
2022-11-02T09:18:32.434Z,11.50
2022-11-02T09:21:03.296Z,11.50
2022-11-02T09:23:32.655Z,11.40
2022-11-02T09:26:01.243Z,11.50
2022-11-02T09:28:31.118Z,11.70
2022-11-02T09:31:00.995Z,11.70
2022-11-02T09:33:29.920Z,11.90
2022-11-02T09:36:03.615Z,11.90
2022-11-02T09:38:32.302Z,12.00
2022-11-02T09:41:13.431Z,12.10
2022-11-02T09:44:06.230Z,12.10
2022-11-02T09:51:54.516Z,12.50
2022-11-02T09:54:29.575Z,12.50
2022-11-02T09:57:09.310Z,12.40
2022-11-02T09:59:42.817Z,12.20
2022-11-02T10:02:24.592Z,12.20
2022-11-02T10:05:17.242Z,12.30
2022-11-02T10:08:11.413Z,12.30
2022-11-02T10:10:48.805Z,12.30
2022-11-02T10:13:29.069Z,12.50
2022-11-02T10:16:00.928Z,12.30
2022-11-02T10:18:31.107Z,12.30
2022-11-02T10:21:04.340Z,12.20
2022-11-02T10:23:39.101Z,12.10
2022-11-02T10:26:08.212Z,12.30
2022-11-02T10:28:40.898Z,12.40
2022-11-02T10:31:24.717Z,12.50
2022-11-02T10:33:58.051Z,12.50
2022-11-02T10:36:42.283Z,12.60
2022-11-02T10:39:24.146Z,12.60
2022-11-02T10:42:21.105Z,12.40
2022-11-02T10:45:06.604Z,12.40
2022-11-02T10:47:42.670Z,12.50
2022-11-02T10:50:36.816Z,12.60
2022-11-02T10:53:35.269Z,12.80
2022-11-02T10:56:04.659Z,12.70
2022-11-02T10:58:37.820Z,12.60
2022-11-02T11:01:08.102Z,12.40
2022-11-02T11:03:53.647Z,12.20
2022-11-02T11:06:22.701Z,12.20
2022-11-02T11:08:53.579Z,12.20
2022-11-02T11:11:29.574Z,12.30
2022-11-02T11:16:52.717Z,12.60
2022-11-02T11:19:42.225Z,12.80
2022-11-02T11:22:29.430Z,12.70
2022-11-02T11:25:27.633Z,12.70
2022-11-02T11:27:59.802Z,12.80
2022-11-02T11:33:21.235Z,13.00
2022-11-02T11:36:18.269Z,13.50
2022-11-02T11:38:48.907Z,14.00
2022-11-02T11:41:17.560Z,14.20
2022-11-02T11:43:48.501Z,14.00
2022-11-02T11:46:18.413Z,14.00
2022-11-02T11:48:50.291Z,14.00
2022-11-02T11:51:35.112Z,13.70
2022-11-02T11:54:22.210Z,13.50
2022-11-02T11:56:52.471Z,13.30
2022-11-02T11:59:26.154Z,13.40
2022-11-02T12:01:58.008Z,13.90
2022-11-02T12:04:35.519Z,14.10
2022-11-02T12:07:36.832Z,14.60
2022-11-02T12:10:13.580Z,14.90
2022-11-02T12:13:05.804Z,15.20
2022-11-02T12:15:47.912Z,15.40
2022-11-02T12:18:34.647Z,15.50
2022-11-02T12:21:16.767Z,15.70
2022-11-02T12:24:08.771Z,15.60
2022-11-02T12:26:51.834Z,15.40
2022-11-02T12:29:42.823Z,15.50
2022-11-02T12:32:25.041Z,15.40
2022-11-02T12:38:22.042Z,16.30
2022-11-02T12:41:00.198Z,16.10
2022-11-02T12:43:39.790Z,16.20
2022-11-02T12:46:38.497Z,16.30
2022-11-02T12:49:36.036Z,16.00
2022-11-02T12:52:17.385Z,15.60
2022-11-02T12:54:51.454Z,15.40
2022-11-02T12:57:23.385Z,15.00
2022-11-02T12:59:55.511Z,14.60
2022-11-02T13:02:31.820Z,14.40
2022-11-02T13:05:04.981Z,14.70
2022-11-02T13:07:38.008Z,14.80
2022-11-02T13:10:14.736Z,14.50
2022-11-02T13:12:45.679Z,14.10
2022-11-02T13:15:17.736Z,14.00
2022-11-02T13:17:49.621Z,14.00
2022-11-02T13:20:22.943Z,14.20
2022-11-02T13:22:57.635Z,14.30
2022-11-02T13:25:32.635Z,14.30
2022-11-02T13:28:06.049Z,14.40
2022-11-02T13:30:35.416Z,14.60
2022-11-02T13:33:09.930Z,14.50
2022-11-02T13:35:41.037Z,14.30
2022-11-02T13:38:21.975Z,14.20
2022-11-02T13:40:57.580Z,14.10
2022-11-02T13:44:01.442Z,14.20
2022-11-02T13:46:40.707Z,14.50
2022-11-02T13:49:16.928Z,15.00
2022-11-02T13:51:49.735Z,15.60
2022-11-02T13:54:26.523Z,15.80
2022-11-02T13:56:57.830Z,16.20
2022-11-02T13:59:32.893Z,16.00
2022-11-02T14:02:04.989Z,15.80
2022-11-02T14:04:39.788Z,15.80
2022-11-02T14:07:21.590Z,15.40
2022-11-02T14:09:50.249Z,15.10
2022-11-02T14:12:42.237Z,14.40
2022-11-02T14:15:50.143Z,14.00
2022-11-02T14:18:32.373Z,13.50
2022-11-02T14:21:21.500Z,13.40
2022-11-02T14:23:51.220Z,13.30
2022-11-02T14:26:55.747Z,13.20
2022-11-02T14:29:40.162Z,13.20
2022-11-02T14:32:16.156Z,13.00
2022-11-02T14:35:17.100Z,13.00
2022-11-02T14:38:05.388Z,13.10
2022-11-02T14:40:49.915Z,13.20
2022-11-02T14:43:44.120Z,13.30
2022-11-02T14:46:29.469Z,13.30
2022-11-02T14:49:00.664Z,13.30
2022-11-02T14:51:31.723Z,13.30
2022-11-02T14:54:02.818Z,13.30
2022-11-02T14:56:53.781Z,13.30
2022-11-02T14:59:27.231Z,13.30
2022-11-02T15:02:01.037Z,13.20
2022-11-02T15:04:31.571Z,13.10
2022-11-02T15:07:02.635Z,12.90
2022-11-02T15:09:54.010Z,12.90
2022-11-02T15:12:30.993Z,12.70
2022-11-02T15:15:33.011Z,12.60
2022-11-02T15:18:23.935Z,12.60
2022-11-02T15:21:23.201Z,12.50
2022-11-02T15:23:59.078Z,12.40
2022-11-02T15:26:37.793Z,12.40
2022-11-02T15:29:19.587Z,12.30
2022-11-02T15:31:56.511Z,12.10
2022-11-02T15:34:34.388Z,12.10
2022-11-02T15:37:03.877Z,12.00
2022-11-02T15:39:32.780Z,11.90
2022-11-02T15:42:08.986Z,11.80
2022-11-02T15:45:14.339Z,11.80
2022-11-02T15:48:06.823Z,11.70
2022-11-02T15:50:46.003Z,11.70
2022-11-02T15:53:27.731Z,11.70
2022-11-02T15:56:11.920Z,11.60
2022-11-02T15:58:58.348Z,11.60
2022-11-02T16:01:28.760Z,11.50
2022-11-02T16:04:00.048Z,11.40
2022-11-02T16:06:30.967Z,11.20
2022-11-02T16:09:01.407Z,11.10
2022-11-02T16:11:29.953Z,11.00
2022-11-02T16:14:17.777Z,11.00
2022-11-02T16:16:51.589Z,10.90
2022-11-02T16:19:21.118Z,10.90
2022-11-02T16:21:50.305Z,10.80
2022-11-02T16:24:19.359Z,10.90
2022-11-02T16:26:49.248Z,10.70
2022-11-02T16:29:27.415Z,10.70
2022-11-02T16:31:57.330Z,10.60
2022-11-02T16:34:29.474Z,10.60
2022-11-02T16:36:59.134Z,10.60
2022-11-02T16:39:30.442Z,10.70
2022-11-02T16:42:01.856Z,10.70
2022-11-02T16:44:33.839Z,10.50
2022-11-02T16:47:18.829Z,10.30
2022-11-02T16:50:00.360Z,10.30
2022-11-02T16:52:33.640Z,10.40
2022-11-02T16:55:02.499Z,10.40
2022-11-02T16:57:33.074Z,10.50
2022-11-02T17:00:05.166Z,10.50
2022-11-02T17:02:38.541Z,10.40
2022-11-02T17:05:15.474Z,10.30
2022-11-02T17:07:47.983Z,10.30
2022-11-02T17:10:22.000Z,10.30
2022-11-02T17:12:50.804Z,10.30
2022-11-02T17:15:21.786Z,10.20
2022-11-02T17:17:51.672Z,10.20
2022-11-02T17:20:22.861Z,10.40
2022-11-02T17:22:59.805Z,10.50
2022-11-02T17:25:32.947Z,10.50
2022-11-02T17:28:03.239Z,10.40
2022-11-02T17:30:49.109Z,10.30
2022-11-02T17:33:28.761Z,10.30
2022-11-02T17:36:05.773Z,10.30
2022-11-02T17:38:34.199Z,10.10
2022-11-02T17:41:23.394Z,10.00
2022-11-02T17:43:50.824Z,9.90
2022-11-02T17:46:19.286Z,9.90
2022-11-02T17:48:48.921Z,10.00
2022-11-02T17:51:18.861Z,10.00
2022-11-02T17:53:47.200Z,9.80
2022-11-02T17:56:15.698Z,9.90
2022-11-02T17:58:44.128Z,10.00
2022-11-02T18:01:14.084Z,10.00
2022-11-02T18:03:45.417Z,10.10
2022-11-02T18:06:15.000Z,10.10
2022-11-02T18:08:57.175Z,10.10
2022-11-02T18:11:26.683Z,10.10
2022-11-02T18:13:55.328Z,10.10
2022-11-02T18:16:23.766Z,10.00
2022-11-02T18:18:52.084Z,9.90
2022-11-02T18:21:23.883Z,9.90
2022-11-02T18:23:53.631Z,9.90
2022-11-02T18:26:22.059Z,9.90
2022-11-02T18:28:50.992Z,9.80
2022-11-02T18:31:20.186Z,9.90
2022-11-02T18:33:48.695Z,9.80
2022-11-02T18:36:17.058Z,9.90
2022-11-02T18:38:49.730Z,9.90
2022-11-02T18:41:31.051Z,9.90
2022-11-02T18:44:05.769Z,9.90
2022-11-02T18:46:36.257Z,9.70
2022-11-02T18:49:04.950Z,9.80
2022-11-02T18:51:33.455Z,9.70
2022-11-02T18:54:04.902Z,9.70
2022-11-02T18:56:33.862Z,9.70
2022-11-02T18:59:02.329Z,9.70
2022-11-02T19:01:31.965Z,9.70
2022-11-02T19:04:02.347Z,9.70
2022-11-02T19:06:50.333Z,9.70
2022-11-02T19:09:23.201Z,9.70
2022-11-02T19:11:56.657Z,9.70
2022-11-02T19:14:25.797Z,9.70
2022-11-02T19:16:54.143Z,9.70
2022-11-02T19:19:22.599Z,9.60
2022-11-02T19:21:50.936Z,9.70
2022-11-02T19:24:22.058Z,9.70
2022-11-02T19:26:50.869Z,9.60
2022-11-02T19:29:20.176Z,9.80
2022-11-02T19:31:48.727Z,9.70
2022-11-02T19:34:17.177Z,9.70
2022-11-02T19:36:45.342Z,9.70
2022-11-02T19:39:14.571Z,9.70
2022-11-02T19:41:44.149Z,9.60
2022-11-02T19:44:12.331Z,9.60
2022-11-02T19:46:44.464Z,9.60
2022-11-02T19:49:13.146Z,9.60
2022-11-02T19:51:42.615Z,9.60
2022-11-02T19:54:10.843Z,9.70
2022-11-02T19:56:39.080Z,9.70
2022-11-02T19:59:08.807Z,9.70
2022-11-02T20:01:38.454Z,9.60
2022-11-02T20:04:07.484Z,9.50
2022-11-02T20:06:37.660Z,9.60
2022-11-02T20:09:08.075Z,9.60
2022-11-02T20:11:39.707Z,9.60
2022-11-02T20:14:10.335Z,9.50
2022-11-02T20:16:39.400Z,9.50
2022-11-02T20:19:07.913Z,9.40
2022-11-02T20:21:41.513Z,9.40
2022-11-02T20:24:12.198Z,9.40
2022-11-02T20:26:42.053Z,9.40
2022-11-02T20:29:15.354Z,9.40
2022-11-02T20:31:45.779Z,9.30
2022-11-02T20:34:14.613Z,9.30
2022-11-02T20:36:43.719Z,9.40
2022-11-02T20:39:14.850Z,9.40
2022-11-02T20:41:43.681Z,9.30
2022-11-02T20:44:13.392Z,9.20
2022-11-02T20:46:42.410Z,9.20
2022-11-02T20:49:22.276Z,9.20
2022-11-02T20:52:00.515Z,9.20
2022-11-02T20:54:29.846Z,9.30
2022-11-02T20:56:58.582Z,9.20
2022-11-02T20:59:28.199Z,9.20
2022-11-02T21:01:56.612Z,9.20
2022-11-02T21:04:25.173Z,9.30
2022-11-02T21:06:53.589Z,9.30
2022-11-02T21:09:22.187Z,9.30
2022-11-02T21:12:09.078Z,9.20
2022-11-02T21:14:38.708Z,9.20
2022-11-02T21:17:07.641Z,9.20
2022-11-02T21:19:35.932Z,9.20
2022-11-02T21:22:05.366Z,9.20
2022-11-02T21:24:36.335Z,9.10
2022-11-02T21:27:06.685Z,9.10
2022-11-02T21:29:34.939Z,9.10
2022-11-02T21:32:04.800Z,9.10
2022-11-02T21:34:33.160Z,9.10
2022-11-02T21:37:03.083Z,9.10
2022-11-02T21:39:31.333Z,8.90
2022-11-02T21:41:59.997Z,8.80
2022-11-02T21:44:28.252Z,8.90
2022-11-02T21:46:56.591Z,9.10
2022-11-02T21:49:27.415Z,9.00
2022-11-02T21:51:55.646Z,9.00
2022-11-02T21:54:24.158Z,9.00
2022-11-02T21:56:52.305Z,9.00
2022-11-02T21:59:20.942Z,8.90
2022-11-02T22:01:49.436Z,8.90
2022-11-02T22:04:21.573Z,8.90
2022-11-02T22:06:53.089Z,9.00
2022-11-02T22:09:22.023Z,8.80
2022-11-02T22:12:10.660Z,8.80
2022-11-02T22:14:40.330Z,8.70
2022-11-02T22:17:21.771Z,8.50
2022-11-02T22:19:58.794Z,8.40
2022-11-02T22:22:29.310Z,8.30
2022-11-02T22:24:57.518Z,8.20
2022-11-02T22:27:25.728Z,8.20
2022-11-02T22:29:53.931Z,8.30
2022-11-02T22:32:22.716Z,8.30
2022-11-02T22:34:51.026Z,8.20
2022-11-02T22:37:39.520Z,8.30
2022-11-02T22:40:11.104Z,8.20
2022-11-02T22:42:42.384Z,8.30
2022-11-02T22:45:14.024Z,8.30
2022-11-02T22:47:42.682Z,8.50
2022-11-02T22:50:12.672Z,8.50
2022-11-02T22:52:40.968Z,8.60
2022-11-02T22:55:11.590Z,8.60
2022-11-02T22:57:39.930Z,8.60
2022-11-02T23:00:09.194Z,8.60
2022-11-02T23:02:40.457Z,8.50
2022-11-02T23:05:09.284Z,8.50
2022-11-02T23:07:37.486Z,8.30
2022-11-02T23:10:27.268Z,8.40
2022-11-02T23:12:56.055Z,8.30
2022-11-02T23:15:24.575Z,8.30
2022-11-02T23:17:52.916Z,8.20
2022-11-02T23:20:20.202Z,8.20
2022-11-02T23:23:07.268Z,8.10
2022-11-02T23:25:36.516Z,8.20
2022-11-02T23:31:24.596Z,8.10
2022-11-02T23:33:52.920Z,8.10
2022-11-02T23:36:20.546Z,8.20
2022-11-02T23:39:08.144Z,8.20
2022-11-02T23:41:38.713Z,8.30
2022-11-02T23:44:14.776Z,8.30
2022-11-02T23:46:44.472Z,8.30
2022-11-02T23:49:13.716Z,8.40
2022-11-02T23:52:14.211Z,8.40
2022-11-02T23:55:00.942Z,8.40
2022-11-02T23:57:30.945Z,8.40
